Time;durP1;ratioP1;P1;durP2;ratioP2;P2;SDS_P1;SDS_P2;PMS_P1;PMS_P2;Temp;Humidity;BMP_temperature;BMP_pressure;BME280_temperature;BME280_humidity;BME280_pressure;Samples;Min_cycle;Max_cycle;Signal;HPM_P1;HPM_P2
2022/07/13 00:00:00;;;;;;;1.58;1.05;;;;;;;;;;5111987;28;20032;-76
2022/07/13 00:02:26;;;;;;;3.72;1.00;;;;;;;;;;5095776;28;20051;-77
2022/07/13 00:04:51;;;;;;;1.27;1.17;;;;;;;;;;5119943;27;20030;-76
2022/07/13 00:07:18;;;;;;;2.22;1.40;;;;;;;;;;5132980;27;20047;-76
2022/07/13 00:09:44;;;;;;;7.53;1.45;;;;;;;;;;5116055;28;20030;-76
2022/07/13 00:12:10;;;;;;;3.03;1.20;;;;;;;;;;5134253;27;20031;-76
2022/07/13 00:14:35;;;;;;;2.25;1.30;;;;;;;;;;5132917;27;20035;-76
2022/07/13 00:17:01;;;;;;;2.35;1.08;;;;;;;;;;5132803;27;20035;-77
2022/07/13 00:19:27;;;;;;;2.58;1.20;;;;;;;;;;5133834;27;20060;-77
2022/07/13 00:21:54;;;;;;;1.98;1.00;;;;;;;;;;5115817;28;20164;-76
2022/07/13 00:24:23;;;;;;;1.10;1.05;;;;;;;;;;5132953;28;20038;-76
2022/07/13 00:26:49;;;;;;;1.45;0.93;;;;;;;;;;5121811;27;20123;-76
2022/07/13 00:29:14;;;;;;;1.15;1.00;;;;;;;;;;5112306;28;20507;-76
2022/07/13 00:31:41;;;;;;;1.35;1.13;;;;;;;;;;5112043;28;20058;-77
2022/07/13 00:34:07;;;;;;;5.05;1.38;;;;;;;;;;5095066;28;20523;-77
2022/07/13 00:36:32;;;;;;;1.70;1.00;;;;;;;;;;5111954;28;20040;-76
2022/07/13 00:38:58;;;;;;;0.90;0.90;;;;;;;;;;5095492;28;20042;-76
2022/07/13 00:41:24;;;;;;;2.00;1.10;;;;;;;;;;5095290;28;20097;-76
2022/07/13 00:43:52;;;;;;;1.08;0.98;;;;;;;;;;5112033;28;20035;-76
2022/07/13 00:46:18;;;;;;;1.83;1.00;;;;;;;;;;5113217;28;20110;-77
2022/07/13 00:48:44;;;;;;;2.85;1.15;;;;;;;;;;5095109;28;20062;-77
2022/07/13 00:51:10;;;;;;;8.45;1.05;;;;;;;;;;5111833;28;20027;-77
2022/07/13 00:53:38;;;;;;;2.53;0.93;;;;;;;;;;5112116;28;20089;-76
2022/07/13 00:56:05;;;;;;;0.95;0.90;;;;;;;;;;5111966;28;20445;-76
2022/07/13 00:58:32;;;;;;;2.65;1.38;;;;;;;;;;5112396;28;20116;-76
2022/07/13 01:00:57;;;;;;;1.83;1.25;;;;;;;;;;5094702;28;20031;-77
2022/07/13 01:03:23;;;;;;;4.63;2.00;;;;;;;;;;5094797;28;20492;-77
2022/07/13 01:05:50;;;;;;;3.25;1.10;;;;;;;;;;5111497;28;20036;-76
2022/07/13 01:08:18;;;;;;;2.60;1.08;;;;;;;;;;5116402;28;20027;-76
2022/07/13 01:10:43;;;;;;;1.80;0.95;;;;;;;;;;5132531;28;20404;-77
2022/07/13 01:13:11;;;;;;;0.88;0.88;;;;;;;;;;5115357;28;20031;-77
2022/07/13 01:15:37;;;;;;;2.63;1.45;;;;;;;;;;5115022;28;20062;-77
2022/07/13 01:18:03;;;;;;;6.28;1.15;;;;;;;;;;5131944;28;20142;-77
2022/07/13 01:20:29;;;;;;;3.10;1.20;;;;;;;;;;5115262;28;20043;-77
2022/07/13 01:22:56;;;;;;;1.45;1.27;;;;;;;;;;5132374;28;20092;-76
2022/07/13 01:25:22;;;;;;;3.75;1.20;;;;;;;;;;5115930;27;20031;-76
2022/07/13 01:27:48;;;;;;;5.00;1.48;;;;;;;;;;5137407;27;20035;-76
2022/07/13 01:30:15;;;;;;;2.70;1.40;;;;;;;;;;5119112;27;20031;-77
2022/07/13 01:32:46;;;;;;;1.38;1.20;;;;;;;;;;5136010;27;20030;-76
2022/07/13 01:35:13;;;;;;;7.93;1.50;;;;;;;;;;5135805;27;20061;-77
2022/07/13 01:37:39;;;;;;;1.10;1.10;;;;;;;;;;5118753;27;20030;-76
2022/07/13 01:40:07;;;;;;;5.68;1.23;;;;;;;;;;5128168;27;20082;-77
2022/07/13 01:42:50;;;;;;;5.28;1.58;;;;;;;;;;5136026;27;20031;-77
2022/07/13 01:45:20;;;;;;;1.73;1.10;;;;;;;;;;5119140;27;20050;-76
2022/07/13 01:47:48;;;;;;;1.40;1.10;;;;;;;;;;5118725;27;20036;-77
2022/07/13 01:50:17;;;;;;;2.47;1.08;;;;;;;;;;5135834;27;20080;-76
2022/07/13 01:52:46;;;;;;;1.30;1.20;;;;;;;;;;5118217;27;20042;-77
2022/07/13 01:55:12;;;;;;;1.13;1.00;;;;;;;;;;5117909;27;20031;-77
2022/07/13 01:57:41;;;;;;;3.58;0.93;;;;;;;;;;5118635;27;20030;-76
2022/07/13 02:00:17;;;;;;;4.43;1.27;;;;;;;;;;5135442;27;20030;-76
2022/07/13 02:02:46;;;;;;;4.90;1.15;;;;;;;;;;5135383;27;20027;-76
2022/07/13 02:05:17;;;;;;;4.43;1.10;;;;;;;;;;5125242;27;20024;-77
2022/07/13 02:07:43;;;;;;;3.75;1.20;;;;;;;;;;5114485;28;20028;-77
2022/07/13 02:10:11;;;;;;;4.45;1.10;;;;;;;;;;5114646;28;20036;-78
2022/07/13 02:12:39;;;;;;;1.65;1.15;;;;;;;;;;5114479;28;20031;-76
2022/07/13 02:15:08;;;;;;;1.48;1.23;;;;;;;;;;5114665;28;20073;-74
2022/07/13 02:17:33;;;;;;;2.97;1.92;;;;;;;;;;5097689;28;20118;-74
2022/07/13 02:19:59;;;;;;;4.13;1.15;;;;;;;;;;5097060;28;20108;-76
2022/07/13 02:22:25;;;;;;;4.40;1.30;;;;;;;;;;5096130;28;20038;-75
2022/07/13 02:24:50;;;;;;;2.58;1.27;;;;;;;;;;5115696;27;20038;-76
2022/07/13 02:27:16;;;;;;;6.45;1.30;;;;;;;;;;5111644;27;20031;-76
2022/07/13 02:29:42;;;;;;;2.15;1.67;;;;;;;;;;5117874;27;20032;-75
2022/07/13 02:32:08;;;;;;;2.50;1.38;;;;;;;;;;5134856;27;20054;-77
2022/07/13 02:34:33;;;;;;;1.25;1.08;;;;;;;;;;5116622;27;20023;-75
2022/07/13 02:37:00;;;;;;;0.85;0.85;;;;;;;;;;5133512;27;20054;-76
2022/07/13 02:39:26;;;;;;;3.72;1.65;;;;;;;;;;5116321;27;20577;-76
2022/07/13 02:41:51;;;;;;;3.70;1.27;;;;;;;;;;5134312;27;20046;-75
2022/07/13 02:44:17;;;;;;;2.75;1.20;;;;;;;;;;5134339;27;20031;-75
2022/07/13 02:46:43;;;;;;;1.67;1.38;;;;;;;;;;5134384;27;20117;-75
2022/07/13 02:49:09;;;;;;;6.97;1.17;;;;;;;;;;5134285;27;20055;-75
2022/07/13 02:51:35;;;;;;;2.15;1.38;;;;;;;;;;5134264;27;20106;-77
2022/07/13 02:54:01;;;;;;;1.60;1.17;;;;;;;;;;5117061;27;20467;-77
2022/07/13 02:56:27;;;;;;;3.10;1.40;;;;;;;;;;5135574;27;20027;-77
2022/07/13 02:58:54;;;;;;;2.03;1.50;;;;;;;;;;5140264;27;20442;-78
2022/07/13 03:01:19;;;;;;;2.17;1.10;;;;;;;;;;5117418;27;20528;-77
2022/07/13 03:03:45;;;;;;;1.85;1.23;;;;;;;;;;5134236;27;20039;-77
2022/07/13 03:06:12;;;;;;;1.52;1.13;;;;;;;;;;5118279;27;20465;-78
2022/07/13 03:08:39;;;;;;;4.32;1.30;;;;;;;;;;5130078;27;20049;-79
2022/07/13 03:11:05;;;;;;;4.45;1.13;;;;;;;;;;5115076;28;20020;-78
2022/07/13 03:13:31;;;;;;;3.25;1.23;;;;;;;;;;5113684;28;20485;-76
2022/07/13 03:15:58;;;;;;;4.97;1.30;;;;;;;;;;5096431;28;20501;-76
2022/07/13 03:18:24;;;;;;;3.25;1.40;;;;;;;;;;5113679;28;20054;-76
2022/07/13 03:20:50;;;;;;;2.60;1.27;;;;;;;;;;5095931;28;20039;-77
2022/07/13 03:23:17;;;;;;;1.98;1.33;;;;;;;;;;5096179;28;20035;-77
2022/07/13 03:25:43;;;;;;;2.80;1.15;;;;;;;;;;5095751;28;20404;-77
2022/07/13 03:28:11;;;;;;;7.40;1.15;;;;;;;;;;5112417;28;20091;-76
2022/07/13 03:30:37;;;;;;;1.20;1.10;;;;;;;;;;5096156;28;20055;-77
2022/07/13 03:33:03;;;;;;;2.50;1.55;;;;;;;;;;5095811;28;20529;-76
2022/07/13 03:35:30;;;;;;;1.30;1.20;;;;;;;;;;5096173;28;20031;-76
2022/07/13 03:37:56;;;;;;;4.35;1.40;;;;;;;;;;5095992;28;20069;-77
2022/07/13 03:40:26;;;;;;;4.45;1.30;;;;;;;;;;5106768;27;20043;-76
2022/07/13 03:42:53;;;;;;;3.42;1.20;;;;;;;;;;5116475;27;20047;-76
2022/07/13 03:45:19;;;;;;;4.75;1.40;;;;;;;;;;5133008;27;20054;-77
2022/07/13 03:47:46;;;;;;;2.72;1.20;;;;;;;;;;5116026;27;20084;-76
2022/07/13 03:50:12;;;;;;;2.75;1.55;;;;;;;;;;5116278;27;20031;-76
2022/07/13 03:52:39;;;;;;;11.32;1.48;;;;;;;;;;5133290;27;20027;-76
2022/07/13 03:55:05;;;;;;;1.52;1.27;;;;;;;;;;5115767;27;20058;-76
2022/07/13 03:57:32;;;;;;;4.07;1.60;;;;;;;;;;5116363;27;20468;-77
2022/07/13 03:59:57;;;;;;;2.50;1.48;;;;;;;;;;5115817;27;20122;-76
2022/07/13 04:02:24;;;;;;;1.42;1.33;;;;;;;;;;5116153;27;20019;-77
2022/07/13 04:04:52;;;;;;;4.50;2.13;;;;;;;;;;5116126;27;20031;-77
2022/07/13 04:07:20;;;;;;;4.50;1.63;;;;;;;;;;5133168;27;20027;-77
2022/07/13 04:09:46;;;;;;;3.10;1.30;;;;;;;;;;5132510;27;20031;-77
2022/07/13 04:12:12;;;;;;;4.75;1.70;;;;;;;;;;5133045;27;20059;-76
2022/07/13 04:14:38;;;;;;;4.30;1.80;;;;;;;;;;5115768;27;20031;-77
2022/07/13 04:17:05;;;;;;;1.92;1.40;;;;;;;;;;5115016;27;20061;-77
2022/07/13 04:19:32;;;;;;;8.23;1.55;;;;;;;;;;5133527;27;20032;-76
2022/07/13 04:22:04;;;;;;;1.60;1.50;;;;;;;;;;5132985;27;20050;-76
2022/07/13 04:24:34;;;;;;;4.55;1.50;;;;;;;;;;5133235;27;20063;-77
2022/07/13 04:27:01;;;;;;;1.65;1.52;;;;;;;;;;5132685;27;20042;-76
2022/07/13 04:29:27;;;;;;;4.57;1.73;;;;;;;;;;5115621;28;20027;-77
2022/07/13 04:31:52;;;;;;;2.55;1.60;;;;;;;;;;5132464;27;20027;-77
2022/07/13 04:34:19;;;;;;;2.78;2.45;;;;;;;;;;5132488;28;20035;-77
2022/07/13 04:36:46;;;;;;;2.53;1.50;;;;;;;;;;5129163;27;20035;-77
2022/07/13 04:39:13;;;;;;;3.35;1.73;;;;;;;;;;5112198;28;20043;-77
2022/07/13 04:41:38;;;;;;;2.45;1.63;;;;;;;;;;5113276;28;20042;-77
2022/07/13 04:44:05;;;;;;;6.30;1.70;;;;;;;;;;5129293;27;20038;-77
2022/07/13 04:46:31;;;;;;;2.95;1.63;;;;;;;;;;5115397;28;20028;-77
2022/07/13 04:48:58;;;;;;;5.75;1.60;;;;;;;;;;5116050;28;20031;-77
2022/07/13 04:51:25;;;;;;;1.77;1.38;;;;;;;;;;5132647;28;20037;-77
2022/07/13 04:53:51;;;;;;;1.30;1.20;;;;;;;;;;5132922;27;20369;-77
2022/07/13 04:56:17;;;;;;;5.55;1.55;;;;;;;;;;5132677;28;20031;-76
2022/07/13 04:58:43;;;;;;;5.45;1.65;;;;;;;;;;5115283;27;20088;-77
2022/07/13 05:01:10;;;;;;;2.63;1.67;;;;;;;;;;5117798;27;20076;-77
2022/07/13 05:03:36;;;;;;;2.00;1.65;;;;;;;;;;5119328;27;20039;-77
2022/07/13 05:06:03;;;;;;;4.60;1.60;;;;;;;;;;5118627;27;20031;-76
2022/07/13 05:08:28;;;;;;;2.25;1.60;;;;;;;;;;5136432;27;20050;-76
2022/07/13 05:10:54;;;;;;;3.38;1.88;;;;;;;;;;5119109;27;20164;-77
2022/07/13 05:13:20;;;;;;;3.85;2.08;;;;;;;;;;5119510;27;20118;-76
2022/07/13 05:15:48;;;;;;;2.40;1.80;;;;;;;;;;5136222;27;20114;-77
2022/07/13 05:18:16;;;;;;;12.40;2.00;;;;;;;;;;5119367;27;20037;-77
2022/07/13 05:20:41;;;;;;;3.90;1.90;;;;;;;;;;5135952;27;20027;-76
2022/07/13 05:23:07;;;;;;;3.33;1.67;;;;;;;;;;5137662;27;20411;-77
2022/07/13 05:25:34;;;;;;;5.65;1.40;;;;;;;;;;5119102;27;20038;-77
2022/07/13 05:28:00;;;;;;;8.95;1.63;;;;;;;;;;5136107;27;20031;-77
2022/07/13 05:30:27;;;;;;;7.88;1.80;;;;;;;;;;5136209;27;20055;-77
2022/07/13 05:32:53;;;;;;;3.20;1.75;;;;;;;;;;5135952;27;20437;-77
2022/07/13 05:35:19;;;;;;;3.85;2.30;;;;;;;;;;5117989;27;20049;-77
2022/07/13 05:37:45;;;;;;;4.38;1.60;;;;;;;;;;5135724;27;20031;-77
2022/07/13 05:40:12;;;;;;;7.30;1.60;;;;;;;;;;5117759;27;20147;-78
2022/07/13 05:42:38;;;;;;;5.32;1.70;;;;;;;;;;5118593;27;20126;-77
2022/07/13 05:45:04;;;;;;;1.60;1.38;;;;;;;;;;5118464;27;20125;-78
2022/07/13 05:47:30;;;;;;;3.78;3.08;;;;;;;;;;5135786;27;20031;-77
2022/07/13 05:49:56;;;;;;;7.43;2.88;;;;;;;;;;5136926;27;20400;-77
2022/07/13 05:52:24;;;;;;;5.03;4.15;;;;;;;;;;5117107;27;20027;-77
2022/07/13 05:54:51;;;;;;;3.28;2.58;;;;;;;;;;5134712;27;20050;-77
2022/07/13 05:57:18;;;;;;;2.80;2.13;;;;;;;;;;5118400;27;20389;-77
2022/07/13 05:59:43;;;;;;;4.75;1.60;;;;;;;;;;5135786;27;20156;-77
2022/07/13 06:02:10;;;;;;;2.53;1.80;;;;;;;;;;5118558;27;20126;-77
2022/07/13 06:04:36;;;;;;;2.50;1.60;;;;;;;;;;5117866;27;20042;-76
2022/07/13 06:07:02;;;;;;;5.28;1.90;;;;;;;;;;5135768;27;20031;-80
2022/07/13 06:09:27;;;;;;;1.90;1.55;;;;;;;;;;5119607;27;20471;-80
2022/07/13 06:11:53;;;;;;;3.83;1.70;;;;;;;;;;5122484;27;20062;-80
2022/07/13 06:14:18;;;;;;;4.68;2.13;;;;;;;;;;5121811;27;20030;-82
2022/07/13 06:16:43;;;;;;;2.13;1.30;;;;;;;;;;5138866;27;20087;-79
2022/07/13 06:19:09;;;;;;;3.20;1.48;;;;;;;;;;5138981;27;20117;-78
2022/07/13 06:21:36;;;;;;;6.55;2.03;;;;;;;;;;5137093;27;20122;-82
2022/07/13 06:24:01;;;;;;;3.25;1.75;;;;;;;;;;5119975;27;20057;-77
2022/07/13 06:26:27;;;;;;;6.38;2.10;;;;;;;;;;5119638;27;20476;-78
2022/07/13 06:28:52;;;;;;;2.60;1.60;;;;;;;;;;5120672;27;20061;-79
2022/07/13 06:31:19;;;;;;;3.55;1.95;;;;;;;;;;5137587;27;20038;-79
2022/07/13 06:33:44;;;;;;;8.63;1.83;;;;;;;;;;5137003;27;20035;-79
2022/07/13 06:36:09;;;;;;;6.32;1.80;;;;;;;;;;5136557;27;20527;-79
2022/07/13 06:38:35;;;;;;;6.28;2.10;;;;;;;;;;5157957;27;20041;-79
2022/07/13 06:41:01;;;;;;;2.75;1.80;;;;;;;;;;5156678;27;20043;-79
2022/07/13 06:43:27;;;;;;;5.57;1.70;;;;;;;;;;5124061;27;20078;-79
2022/07/13 06:45:52;;;;;;;4.00;1.88;;;;;;;;;;5114795;28;20190;-77
2022/07/13 06:48:18;;;;;;;2.50;1.73;;;;;;;;;;5112867;28;20042;-76
2022/07/13 06:50:44;;;;;;;3.50;1.75;;;;;;;;;;5095790;28;20034;-77
2022/07/13 06:53:10;;;;;;;3.45;2.00;;;;;;;;;;5096158;28;20451;-77
2022/07/13 06:55:35;;;;;;;5.43;1.98;;;;;;;;;;5114353;28;20035;-77
2022/07/13 06:58:02;;;;;;;5.35;1.95;;;;;;;;;;5113265;28;20035;-77
2022/07/13 07:00:28;;;;;;;3.03;1.60;;;;;;;;;;5113129;28;20039;-77
2022/07/13 07:02:53;;;;;;;14.02;2.30;;;;;;;;;;5113731;28;20035;-76
2022/07/13 07:05:19;;;;;;;3.85;1.60;;;;;;;;;;5114558;28;20063;-76
2022/07/13 07:07:45;;;;;;;2.15;1.70;;;;;;;;;;5096549;28;20027;-76
2022/07/13 07:10:11;;;;;;;2.92;1.80;;;;;;;;;;5113608;28;20027;-77
2022/07/13 07:12:37;;;;;;;1.73;1.55;;;;;;;;;;5099935;27;20030;-77
2022/07/13 07:15:03;;;;;;;3.65;1.40;;;;;;;;;;5116727;27;20446;-77
2022/07/13 07:17:29;;;;;;;2.60;1.55;;;;;;;;;;5133860;27;20027;-77
2022/07/13 07:20:04;;;;;;;2.50;1.83;;;;;;;;;;5122711;27;20485;-77
2022/07/13 07:22:29;;;;;;;10.05;1.73;;;;;;;;;;5113899;28;20050;-77
2022/07/13 07:24:56;;;;;;;2.92;1.98;;;;;;;;;;5095905;28;20029;-77
2022/07/13 07:27:22;;;;;;;8.20;2.25;;;;;;;;;;5113038;28;20034;-77
2022/07/13 07:29:48;;;;;;;4.50;2.25;;;;;;;;;;5095994;28;20050;-77
2022/07/13 07:32:13;;;;;;;7.43;2.67;;;;;;;;;;5114325;28;20027;-77
2022/07/13 07:34:38;;;;;;;3.25;2.28;;;;;;;;;;5112729;28;20088;-77
2022/07/13 07:37:05;;;;;;;5.18;2.40;;;;;;;;;;5112956;28;20042;-77
2022/07/13 07:39:31;;;;;;;7.22;2.20;;;;;;;;;;5112570;27;20056;-77
2022/07/13 07:41:59;;;;;;;4.95;1.90;;;;;;;;;;5112957;28;20054;-77
2022/07/13 07:44:24;;;;;;;2.90;1.83;;;;;;;;;;5112180;28;20036;-77
2022/07/13 07:46:50;;;;;;;1.98;1.60;;;;;;;;;;5095934;28;20408;-77
2022/07/13 07:49:16;;;;;;;4.22;1.70;;;;;;;;;;5112503;28;20035;-77
2022/07/13 07:51:43;;;;;;;4.30;1.70;;;;;;;;;;5112861;28;20024;-77
2022/07/13 07:54:08;;;;;;;3.33;2.00;;;;;;;;;;5095385;28;20070;-78
2022/07/13 07:56:35;;;;;;;11.00;2.10;;;;;;;;;;5112378;28;20062;-77
2022/07/13 07:59:07;;;;;;;2.28;1.70;;;;;;;;;;5129416;27;20027;-77
2022/07/13 08:01:32;;;;;;;3.92;1.70;;;;;;;;;;5095579;28;20032;-77
2022/07/13 08:03:58;;;;;;;3.15;1.90;;;;;;;;;;5113510;28;20042;-77
2022/07/13 08:06:24;;;;;;;3.42;2.42;;;;;;;;;;5095368;28;20035;-77
2022/07/13 08:08:49;;;;;;;11.18;2.38;;;;;;;;;;5118212;27;20080;-80
2022/07/13 08:11:17;;;;;;;7.03;2.00;;;;;;;;;;5140227;27;20027;-82
2022/07/13 08:13:44;;;;;;;3.35;1.65;;;;;;;;;;5132327;27;20041;-78
2022/07/13 08:16:11;;;;;;;3.00;1.73;;;;;;;;;;5156338;27;20030;-82
2022/07/13 08:18:37;;;;;;;3.85;1.80;;;;;;;;;;5151326;27;20077;-82
2022/07/13 08:21:03;;;;;;;3.25;1.88;;;;;;;;;;5119898;27;20043;-80
2022/07/13 08:26:14;;;;;;;3.78;1.40;;;;;;;;;;5139358;27;20031;-84
2022/07/13 08:28:42;;;;;;;8.23;1.50;;;;;;;;;;5122579;28;20060;-84
2022/07/13 08:31:08;;;;;;;5.07;1.50;;;;;;;;;;5120985;28;20031;-83
2022/07/13 08:38:34;;;;;;;6.50;1.70;;;;;;;;;;5120547;28;20027;-84
2022/07/13 08:39:10;;;;;;;4.00;1.95;;;;;;;;;;5143449;27;20039;-79
2022/07/13 08:41:36;;;;;;;4.78;2.05;;;;;;;;;;5125098;27;20036;-82
2022/07/13 08:44:02;;;;;;;4.25;1.60;;;;;;;;;;5126734;27;20038;-85
2022/07/13 08:46:29;;;;;;;5.40;1.55;;;;;;;;;;5126964;27;20035;-85
2022/07/13 08:48:55;;;;;;;3.60;1.35;;;;;;;;;;5124269;27;20027;-80
2022/07/13 08:51:22;;;;;;;1.75;1.30;;;;;;;;;;5124030;27;20027;-80
2022/07/13 08:53:51;;;;;;;3.22;1.40;;;;;;;;;;5141088;27;20114;-80
2022/07/13 08:56:17;;;;;;;7.72;1.50;;;;;;;;;;5123690;27;20034;-80
2022/07/13 08:58:43;;;;;;;2.70;1.48;;;;;;;;;;5124667;27;20035;-81
2022/07/13 09:01:10;;;;;;;1.52;1.20;;;;;;;;;;5141502;27;20035;-82
2022/07/13 09:03:36;;;;;;;6.35;1.73;;;;;;;;;;5125703;27;20031;-81
2022/07/13 09:06:02;;;;;;;37.08;3.63;;;;;;;;;;5143513;27;20035;-81
2022/07/13 09:08:28;;;;;;;4.85;1.60;;;;;;;;;;5125494;27;20031;-81
2022/07/13 09:10:57;;;;;;;10.98;1.85;;;;;;;;;;5142122;27;20034;-81
2022/07/13 09:13:42;;;;;;;25.63;2.30;;;;;;;;;;5125471;27;20056;-81
2022/07/13 09:16:25;;;;;;;11.73;1.75;;;;;;;;;;5141124;27;20230;-80
2022/07/13 09:18:56;;;;;;;5.20;1.00;;;;;;;;;;5141174;27;20388;-82
2022/07/13 09:21:23;;;;;;;7.53;1.08;;;;;;;;;;5124097;27;20038;-81
2022/07/13 09:23:54;;;;;;;8.75;1.17;;;;;;;;;;5122358;27;20084;-78
2022/07/13 09:26:21;;;;;;;1.85;1.10;;;;;;;;;;5139838;27;20046;-78
2022/07/13 09:28:50;;;;;;;4.63;0.77;;;;;;;;;;5141790;27;20034;-78
2022/07/13 09:31:16;;;;;;;3.70;1.35;;;;;;;;;;5142349;27;20075;-79
2022/07/13 09:33:45;;;;;;;4.03;1.00;;;;;;;;;;5141939;27;20038;-79
2022/07/13 09:36:16;;;;;;;1.52;0.90;;;;;;;;;;5160319;27;20039;-78
2022/07/13 09:38:46;;;;;;;3.60;1.08;;;;;;;;;;5158973;27;20041;-78
2022/07/13 09:41:23;;;;;;;1.98;0.75;;;;;;;;;;5141531;27;20376;-78
2022/07/13 09:47:11;;;;;;;1.58;0.90;;;;;;;;;;5117265;28;20084;-79
2022/07/13 09:49:41;;;;;;;1.63;0.95;;;;;;;;;;5105306;28;20373;-78
2022/07/13 09:52:09;;;;;;;2.08;0.82;;;;;;;;;;5118181;28;20023;-79
2022/07/13 09:54:39;;;;;;;1.58;0.95;;;;;;;;;;5117098;28;20088;-79
2022/07/13 09:57:08;;;;;;;2.80;1.05;;;;;;;;;;5117368;28;20496;-78
2022/07/13 09:59:35;;;;;;;1.63;1.00;;;;;;;;;;5117327;28;20480;-78
2022/07/13 10:02:02;;;;;;;8.52;1.48;;;;;;;;;;5117113;28;20031;-78
2022/07/13 10:04:29;;;;;;;4.93;1.20;;;;;;;;;;5117272;28;20091;-78
2022/07/13 10:06:55;;;;;;;1.77;1.10;;;;;;;;;;5116868;28;20023;-80
2022/07/13 10:09:28;;;;;;;4.90;1.15;;;;;;;;;;5118855;28;20370;-79
2022/07/13 10:11:54;;;;;;;0.98;0.90;;;;;;;;;;5116694;28;20034;-79
2022/07/13 10:14:19;;;;;;;2.80;1.02;;;;;;;;;;5138919;27;20027;-79
2022/07/13 10:16:46;;;;;;;4.20;0.80;;;;;;;;;;5158611;27;20456;-78
2022/07/13 10:19:12;;;;;;;1.27;0.90;;;;;;;;;;5141037;27;20488;-79
2022/07/13 10:21:38;;;;;;;1.23;0.93;;;;;;;;;;5158431;27;20039;-79
2022/07/13 10:24:14;;;;;;;5.88;1.08;;;;;;;;;;5140927;27;20031;-79
2022/07/13 10:26:39;;;;;;;1.48;0.90;;;;;;;;;;5159153;27;20095;-80
2022/07/13 10:29:05;;;;;;;4.05;1.10;;;;;;;;;;5140278;27;20488;-78
2022/07/13 10:31:33;;;;;;;6.03;1.20;;;;;;;;;;5140566;27;20026;-78
2022/07/13 10:34:00;;;;;;;3.53;1.30;;;;;;;;;;5157730;27;20056;-79
2022/07/13 10:36:47;;;;;;;1.00;0.90;;;;;;;;;;5157273;27;20404;-79
2022/07/13 10:39:14;;;;;;;6.72;1.10;;;;;;;;;;5139960;27;20035;-79
2022/07/13 10:42:00;;;;;;;5.57;1.27;;;;;;;;;;5157554;27;20091;-78
2022/07/13 10:44:33;;;;;;;4.43;1.30;;;;;;;;;;5158967;27;20106;-79
2022/07/13 10:46:59;;;;;;;4.68;1.23;;;;;;;;;;5141341;27;20035;-79
2022/07/13 10:49:44;;;;;;;1.63;1.10;;;;;;;;;;5140637;27;20045;-79
2022/07/13 10:52:19;;;;;;;1.50;0.85;;;;;;;;;;5140214;27;20023;-79
2022/07/13 10:55:03;;;;;;;6.57;0.95;;;;;;;;;;5157424;27;20460;-79
2022/07/13 10:57:33;;;;;;;3.78;1.23;;;;;;;;;;5139187;27;20380;-78
2022/07/13 11:00:13;;;;;;;1.38;0.90;;;;;;;;;;5139206;27;20071;-78
2022/07/13 11:02:49;;;;;;;7.65;1.20;;;;;;;;;;5156853;27;20057;-78
2022/07/13 11:05:17;;;;;;;9.55;1.40;;;;;;;;;;5157053;27;20035;-80
2022/07/13 11:07:50;;;;;;;3.67;1.15;;;;;;;;;;5141685;27;20035;-80
2022/07/13 11:10:28;;;;;;;10.02;1.38;;;;;;;;;;5141771;27;20082;-80
2022/07/13 11:13:02;;;;;;;11.43;1.27;;;;;;;;;;5141644;27;20031;-79
2022/07/13 11:15:53;;;;;;;3.53;1.30;;;;;;;;;;5141062;27;20412;-79
2022/07/13 11:18:22;;;;;;;9.13;1.00;;;;;;;;;;5159115;27;20042;-79
2022/07/13 11:21:12;;;;;;;6.53;1.35;;;;;;;;;;5140538;27;20031;-79
2022/07/13 11:26:52;;;;;;;3.80;1.10;;;;;;;;;;5156424;27;20125;-86
2022/07/13 11:29:24;;;;;;;4.03;1.42;;;;;;;;;;5141682;27;20034;-85
2022/07/13 11:31:58;;;;;;;1.45;1.30;;;;;;;;;;5141262;27;20035;-83
2022/07/13 11:34:25;;;;;;;4.30;1.20;;;;;;;;;;5138184;27;20031;-85
2022/07/13 11:36:52;;;;;;;2.03;1.45;;;;;;;;;;5160206;27;20396;-79
2022/07/13 11:39:23;;;;;;;6.43;1.30;;;;;;;;;;5143987;27;20046;-79
2022/07/13 11:41:51;;;;;;;3.08;1.20;;;;;;;;;;5121675;27;20031;-79
2022/07/13 11:44:27;;;;;;;6.13;1.00;;;;;;;;;;5123756;27;20035;-79
2022/07/13 11:46:55;;;;;;;9.45;1.55;;;;;;;;;;5122533;27;20031;-79
2022/07/13 11:49:21;;;;;;;10.45;1.10;;;;;;;;;;5142274;27;20054;-80
2022/07/13 11:51:47;;;;;;;7.30;1.20;;;;;;;;;;5123823;27;20054;-80
2022/07/13 11:54:18;;;;;;;5.80;1.42;;;;;;;;;;5140958;27;20499;-80
2022/07/13 11:56:53;;;;;;;1.38;1.10;;;;;;;;;;5142142;27;20034;-80
2022/07/13 11:59:38;;;;;;;10.88;1.17;;;;;;;;;;5125238;27;20035;-80
2022/07/13 12:02:08;;;;;;;6.22;1.42;;;;;;;;;;5123052;27;20039;-79
2022/07/13 12:04:34;;;;;;;7.57;1.50;;;;;;;;;;5113378;27;20384;-80
2022/07/13 12:07:18;;;;;;;4.68;1.42;;;;;;;;;;5130430;27;20039;-80
2022/07/13 12:09:55;;;;;;;3.40;1.02;;;;;;;;;;5130810;27;20039;-79
2022/07/13 12:12:22;;;;;;;13.55;1.70;;;;;;;;;;5113805;27;20477;-80
2022/07/13 12:14:50;;;;;;;3.67;1.20;;;;;;;;;;5123554;28;20038;-79
2022/07/13 12:17:16;;;;;;;3.78;1.20;;;;;;;;;;5141750;27;20035;-80
2022/07/13 12:19:42;;;;;;;8.48;1.30;;;;;;;;;;5142055;27;20039;-80
2022/07/13 12:22:08;;;;;;;11.68;1.10;;;;;;;;;;5125909;27;20050;-79
2022/07/13 12:24:35;;;;;;;3.53;1.15;;;;;;;;;;5142311;27;20053;-79
2022/07/13 12:27:01;;;;;;;3.95;0.75;;;;;;;;;;5126556;27;20441;-79
2022/07/13 12:29:32;;;;;;;4.40;0.90;;;;;;;;;;5122778;28;20046;-78
2022/07/13 12:31:59;;;;;;;7.57;1.00;;;;;;;;;;5136372;28;20035;-79
2022/07/13 12:34:24;;;;;;;3.90;1.15;;;;;;;;;;5139609;27;20051;-80
2022/07/13 12:36:51;;;;;;;8.98;1.17;;;;;;;;;;5160001;27;20031;-79
2022/07/13 12:39:34;;;;;;;4.40;1.05;;;;;;;;;;5143105;27;20035;-79
2022/07/13 12:42:01;;;;;;;3.55;1.00;;;;;;;;;;5158023;27;20042;-79
2022/07/13 12:44:31;;;;;;;8.50;1.20;;;;;;;;;;5146123;27;20046;-80
2022/07/13 12:47:00;;;;;;;3.15;1.10;;;;;;;;;;5145523;27;20106;-80
2022/07/13 12:49:30;;;;;;;7.10;1.13;;;;;;;;;;5132262;27;20039;-80
2022/07/13 12:52:04;;;;;;;5.53;2.05;;;;;;;;;;5137833;27;20080;-80
2022/07/13 12:54:47;;;;;;;4.95;1.30;;;;;;;;;;5120591;28;20039;-80
2022/07/13 12:57:18;;;;;;;7.85;1.08;;;;;;;;;;5126729;28;20035;-80
2022/07/13 12:59:58;;;;;;;9.50;1.75;;;;;;;;;;5106839;28;20038;-80
2022/07/13 13:02:23;;;;;;;5.88;1.30;;;;;;;;;;5104894;28;20032;-80
2022/07/13 13:04:49;;;;;;;7.22;1.40;;;;;;;;;;5110021;28;20021;-80
2022/07/13 13:07:14;;;;;;;5.60;1.30;;;;;;;;;;5125631;28;20035;-80
2022/07/13 13:09:40;;;;;;;6.35;1.25;;;;;;;;;;5124899;28;20046;-81
2022/07/13 13:12:06;;;;;;;3.25;0.93;;;;;;;;;;5120737;28;20118;-81
2022/07/13 13:14:31;;;;;;;3.42;1.23;;;;;;;;;;5133788;28;20047;-81
2022/07/13 13:16:57;;;;;;;5.82;1.10;;;;;;;;;;5099930;28;20035;-81
2022/07/13 13:19:23;;;;;;;2.85;1.10;;;;;;;;;;5117212;28;20401;-80
2022/07/13 13:21:49;;;;;;;2.65;1.17;;;;;;;;;;5118360;28;20096;-81
2022/07/13 13:24:15;;;;;;;4.95;1.38;;;;;;;;;;5119992;28;20096;-81
2022/07/13 13:26:46;;;;;;;3.25;1.20;;;;;;;;;;5103142;28;20039;-81
2022/07/13 13:31:57;;;;;;;6.68;1.50;;;;;;;;;;5120215;28;20031;-82
2022/07/13 13:34:22;;;;;;;2.55;1.00;;;;;;;;;;5119389;28;20563;-81
2022/07/13 13:36:51;;;;;;;4.68;1.58;;;;;;;;;;5119979;28;20084;-82
2022/07/13 13:39:18;;;;;;;2.50;1.23;;;;;;;;;;5119538;27;20039;-81
2022/07/13 13:41:45;;;;;;;2.15;1.30;;;;;;;;;;5102111;28;20400;-85
2022/07/13 13:44:11;;;;;;;11.18;1.83;;;;;;;;;;5118940;28;20035;-81
2022/07/13 13:46:37;;;;;;;6.65;1.17;;;;;;;;;;5102150;28;20070;-81
2022/07/13 13:49:03;;;;;;;4.20;1.42;;;;;;;;;;5101369;28;20031;-81
2022/07/13 13:51:28;;;;;;;4.10;1.20;;;;;;;;;;5103035;28;20035;-81
2022/07/13 13:53:54;;;;;;;2.10;1.30;;;;;;;;;;5118213;28;20036;-82
2022/07/13 13:56:19;;;;;;;6.07;1.20;;;;;;;;;;5117569;28;20130;-84
2022/07/13 13:58:45;;;;;;;6.10;1.40;;;;;;;;;;5117990;28;20047;-81
2022/07/13 14:01:10;;;;;;;3.75;0.90;;;;;;;;;;5103056;28;20036;-81
2022/07/13 14:03:38;;;;;;;6.68;1.90;;;;;;;;;;5102789;28;20100;-82
2022/07/13 14:06:14;;;;;;;8.63;1.00;;;;;;;;;;5120457;28;20465;-82
2022/07/13 14:08:44;;;;;;;5.85;0.98;;;;;;;;;;5102749;28;20035;-82
2022/07/13 14:11:11;;;;;;;8.65;0.88;;;;;;;;;;5130903;27;20628;-84
2022/07/13 14:13:38;;;;;;;2.30;1.15;;;;;;;;;;5150777;27;20113;-84
2022/07/13 14:16:04;;;;;;;2.50;1.20;;;;;;;;;;5149501;27;20052;-84
2022/07/13 14:18:31;;;;;;;11.73;1.27;;;;;;;;;;5162503;27;20484;-80
2022/07/13 14:20:57;;;;;;;6.18;1.20;;;;;;;;;;5144113;27;20030;-81
2022/07/13 14:23:25;;;;;;;3.92;1.13;;;;;;;;;;5144623;27;20060;-81
2022/07/13 14:25:51;;;;;;;4.55;1.08;;;;;;;;;;5144951;27;20543;-81
2022/07/13 14:28:16;;;;;;;1.48;1.10;;;;;;;;;;5144360;27;20054;-81
2022/07/13 14:30:43;;;;;;;9.15;1.30;;;;;;;;;;5162884;27;20042;-80
2022/07/13 14:33:10;;;;;;;4.05;1.25;;;;;;;;;;5145059;27;20039;-82
2022/07/13 14:35:36;;;;;;;7.13;1.05;;;;;;;;;;5147273;27;20035;-81
2022/07/13 14:38:04;;;;;;;11.95;1.30;;;;;;;;;;5139855;27;20091;-80
2022/07/13 14:40:30;;;;;;;6.68;1.15;;;;;;;;;;5122901;27;20484;-80
2022/07/13 14:42:55;;;;;;;15.85;1.40;;;;;;;;;;5122302;27;20442;-79
2022/07/13 14:45:21;;;;;;;2.60;1.30;;;;;;;;;;5118473;28;20039;-80
2022/07/13 14:47:47;;;;;;;7.38;1.27;;;;;;;;;;5118956;28;20119;-80
2022/07/13 14:50:13;;;;;;;2.47;1.25;;;;;;;;;;5119875;28;20035;-80
2022/07/13 14:52:38;;;;;;;5.28;1.42;;;;;;;;;;5120868;28;20027;-78
2022/07/13 14:55:04;;;;;;;6.07;1.00;;;;;;;;;;5122595;27;20036;-78
2022/07/13 14:57:30;;;;;;;2.53;1.05;;;;;;;;;;5136794;27;20469;-78
2022/07/13 14:59:58;;;;;;;5.13;1.17;;;;;;;;;;5123564;27;20107;-79